首页
METAR-TAF:

METAR-TAF

机场 :

波爾托羅日機場

波爾托羅, 斯洛文尼亚

纬度: 45-31N, 经度: 013-34E, 海拔: 95米

当前天气观测

该预报发布于15分钟前的16:00 UTC
风速6节,风向,在北转东北东转东南之间变化
温度 7°C
湿度 49%
气压 1041 hPa
能见度10公里或以上
1500米以下无云,无积雨云

METAR: LJPZ 201600Z 08006KT 020V120 CAVOK 07/M03 Q1041

时间: 17:15 (16:15 UTC)

预报

该预报发布于2小时和15分钟前的14:00 UTC
预报有效从20日的 15点(UTC)到 20日的 24点(UTC)
风速10节,风向东转东北
能见度10公里或以上
1500米以下无云,无积雨云

TAF: LJPZ 201400Z 2015/2024 06010KT CAVOK

超过4000个机场的气象观测和天气预报(METAR&TAF报告)。

可查询的气象台以黄色和红色小点在地图上表示。

将鼠标移到小点上方,可查看气象台名称。

然后点击查看天气观测和预报。

如需切换地图:点击带黑十字的绿色按钮放大地图;点击带横线的绿色按钮缩小地图;或者点击绿色箭头查看邻近地区的地图。


METAR-TAF: